Time;durP1;ratioP1;P1;durP2;ratioP2;P2;SDS_P1;SDS_P2;PMS_P1;PMS_P2;Temp;Humidity;BMP_temperature;BMP_pressure;BME280_temperature;BME280_humidity;BME280_pressure;Samples;Min_cycle;Max_cycle;Signal;HPM_P1;HPM_P2
2022/05/25 00:02:23;;;;;;;6.13;3.92;;;12.30;99.90;;;;;;4994681;28;20037;-73
2022/05/25 00:04:52;;;;;;;5.75;3.78;;;12.30;99.90;;;;;;4994223;28;20387;-72
2022/05/25 00:07:22;;;;;;;5.10;3.22;;;12.40;99.90;;;;;;4992885;28;20030;-73
2022/05/25 00:09:51;;;;;;;4.40;3.25;;;12.40;99.90;;;;;;4994263;28;20027;-72
2022/05/25 00:12:20;;;;;;;4.07;3.13;;;12.40;99.90;;;;;;4994431;28;20157;-77
2022/05/25 00:14:48;;;;;;;7.07;2.78;;;12.50;99.90;;;;;;4993474;28;20030;-72
2022/05/25 00:17:17;;;;;;;4.43;2.60;;;12.50;99.90;;;;;;4993968;28;20364;-72
2022/05/25 00:19:59;;;;;;;3.88;3.10;;;12.50;99.90;;;;;;4993824;28;20084;-72
2022/05/25 00:22:47;;;;;;;5.85;3.80;;;12.60;99.90;;;;;;4994233;28;20026;-72
2022/05/25 00:25:19;;;;;;;4.20;3.20;;;12.70;99.90;;;;;;4994074;28;20026;-72
2022/05/25 00:27:47;;;;;;;3.42;2.75;;;12.70;99.90;;;;;;4993647;28;20026;-77
2022/05/25 00:30:16;;;;;;;4.80;2.67;;;12.70;99.90;;;;;;4994010;28;20380;-72
2022/05/25 00:32:45;;;;;;;5.55;3.08;;;12.70;99.90;;;;;;4986588;28;20026;-72
2022/05/25 00:35:16;;;;;;;4.57;2.42;;;12.80;99.90;;;;;;4984061;28;20030;-73
2022/05/25 00:37:44;;;;;;;3.45;2.35;;;12.80;99.90;;;;;;4982706;28;20038;-77
2022/05/25 00:40:15;;;;;;;3.70;2.88;;;12.80;99.90;;;;;;4983686;28;20112;-77
2022/05/25 00:42:43;;;;;;;5.25;3.33;;;12.90;99.90;;;;;;4991026;28;20037;-72
2022/05/25 00:45:13;;;;;;;6.35;2.05;;;12.90;99.90;;;;;;4992183;28;20097;-71
2022/05/25 00:47:43;;;;;;;4.47;2.75;;;13.00;99.90;;;;;;4985136;28;20497;-77
2022/05/25 00:50:14;;;;;;;4.30;2.55;;;13.00;99.90;;;;;;4983025;28;20438;-72
2022/05/25 00:52:44;;;;;;;5.35;3.45;;;13.10;99.90;;;;;;4976945;28;20031;-73
2022/05/25 00:55:15;;;;;;;7.05;3.72;;;13.10;99.90;;;;;;4974471;28;20029;-72
2022/05/25 00:57:47;;;;;;;3.10;2.80;;;13.20;99.90;;;;;;4976920;28;20073;-77
2022/05/25 01:00:22;;;;;;;3.55;2.13;;;13.20;99.90;;;;;;4976608;28;20050;-72
2022/05/25 01:02:53;;;;;;;4.88;3.25;;;13.20;99.90;;;;;;4973007;28;20468;-72
2022/05/25 01:05:43;;;;;;;9.55;3.03;;;13.30;99.90;;;;;;4989761;28;20375;-72
2022/05/25 01:08:13;;;;;;;4.45;2.25;;;13.40;99.90;;;;;;4988644;28;20034;-71
2022/05/25 01:11:21;;;;;;;4.63;2.10;;;13.40;99.90;;;;;;4991892;28;20022;-72
2022/05/25 01:14:38;;;;;;;3.50;1.73;;;13.50;99.90;;;;;;4981305;28;20063;-73
2022/05/25 01:17:39;;;;;;;2.40;1.50;;;13.50;99.90;;;;;;4931533;29;20396;-73
2022/05/25 01:20:13;;;;;;;1.50;1.40;;;13.60;99.90;;;;;;4987620;28;20030;-72
2022/05/25 01:23:05;;;;;;;3.38;1.50;;;13.60;99.90;;;;;;4992330;28;20019;-72
2022/05/25 01:25:47;;;;;;;2.45;1.20;;;13.60;99.90;;;;;;4993558;28;20088;-72
2022/05/25 01:28:22;;;;;;;1.65;1.10;;;13.70;99.90;;;;;;4993699;28;20024;-74
2022/05/25 01:30:56;;;;;;;3.13;1.27;;;13.70;99.90;;;;;;4993678;28;20415;-72
2022/05/25 01:34:01;;;;;;;2.17;0.98;;;13.80;99.90;;;;;;4992359;28;20375;-77
2022/05/25 01:36:43;;;;;;;2.05;1.00;;;13.80;99.90;;;;;;4993246;28;20022;-72
2022/05/25 01:39:17;;;;;;;2.72;1.05;;;13.80;99.90;;;;;;4995063;28;20026;-72
2022/05/25 01:42:04;;;;;;;3.85;1.38;;;13.90;99.90;;;;;;4997045;28;20089;-72
2022/05/25 01:44:59;;;;;;;1.52;0.70;;;13.90;99.90;;;;;;4997180;28;20026;-73
2022/05/25 01:47:29;;;;;;;0.98;0.77;;;14.00;99.90;;;;;;4996931;28;20034;-72
2022/05/25 01:50:09;;;;;;;1.42;1.00;;;14.20;99.90;;;;;;4995130;28;20043;-76
2022/05/25 01:52:44;;;;;;;3.10;0.90;;;14.30;99.90;;;;;;4996916;28;20026;-72
2022/05/25 01:55:30;;;;;;;2.05;0.80;;;14.30;99.90;;;;;;4997000;28;20025;-73
2022/05/25 01:58:00;;;;;;;;;;;14.40;99.90;;;;;;4997359;28;20042;-73
2022/05/25 02:00:37;;;;;;;1.58;1.23;;;14.40;99.90;;;;;;4997171;28;19941;-73
2022/05/25 02:06:21;;;;;;;4.35;1.08;;;14.50;99.90;;;;;;4997162;28;20032;-73
2022/05/25 02:08:49;;;;;;;1.05;0.70;;;14.60;99.90;;;;;;4996935;28;20391;-74
2022/05/25 02:11:31;;;;;;;1.08;0.80;;;14.70;99.90;;;;;;4996508;28;20033;-74
2022/05/25 02:14:26;;;;;;;1.50;0.88;;;14.80;99.90;;;;;;4996531;28;20030;-74
2022/05/25 02:17:05;;;;;;;2.38;0.98;;;14.90;99.90;;;;;;4996890;28;20369;-77
2022/05/25 02:19:45;;;;;;;2.15;1.27;;;14.90;99.90;;;;;;4996431;28;20372;-76
2022/05/25 02:22:23;;;;;;;2.60;1.48;;;15.10;99.90;;;;;;4990052;28;20022;-73
2022/05/25 02:25:12;;;;;;;3.35;1.42;;;15.20;99.90;;;;;;4987301;28;20153;-76
2022/05/25 02:28:09;;;;;;;1.40;1.17;;;15.40;99.90;;;;;;4985795;28;20050;-78
2022/05/25 02:30:40;;;;;;;1.67;1.05;;;15.50;99.90;;;;;;4957026;28;20031;-73
2022/05/25 02:33:37;;;;;;;2.25;1.13;;;15.50;99.90;;;;;;4984781;28;20109;-74
2022/05/25 02:36:08;;;;;;;1.50;0.85;;;15.50;99.90;;;;;;4986112;28;20369;-74
2022/05/25 02:38:41;;;;;;;1.50;0.90;;;15.50;99.90;;;;;;4984971;28;20065;-77
2022/05/25 02:41:13;;;;;;;4.93;1.25;;;15.50;99.90;;;;;;4984699;28;20021;-75
2022/05/25 02:43:41;;;;;;;6.57;1.15;;;15.40;99.90;;;;;;4985604;28;20023;-78
2022/05/25 02:46:09;;;;;;;1.63;1.20;;;15.40;99.90;;;;;;4985044;28;20379;-76
2022/05/25 02:48:37;;;;;;;4.63;1.00;;;15.40;99.90;;;;;;4986604;28;20099;-76
2022/05/25 02:51:07;;;;;;;1.80;0.93;;;15.30;99.90;;;;;;4984924;28;20057;-76
2022/05/25 02:53:35;;;;;;;4.72;1.10;;;15.30;99.90;;;;;;4984569;28;20109;-76
2022/05/25 02:56:03;;;;;;;1.30;0.70;;;15.30;99.90;;;;;;4985826;28;20101;-74
2022/05/25 02:58:31;;;;;;;2.42;1.02;;;15.20;99.90;;;;;;4986557;28;20034;-74
2022/05/25 03:00:59;;;;;;;0.82;0.65;;;15.10;99.90;;;;;;4984583;28;20443;-75
2022/05/25 03:03:28;;;;;;;1.45;0.63;;;15.00;99.90;;;;;;4985023;28;20030;-76
2022/05/25 03:05:56;;;;;;;3.70;0.85;;;14.90;99.90;;;;;;4983842;28;20030;-77
2022/05/25 03:08:24;;;;;;;0.75;0.50;;;14.90;99.90;;;;;;4984654;28;20384;-73
2022/05/25 03:10:51;;;;;;;5.53;1.15;;;14.80;99.90;;;;;;4984397;28;20018;-74
2022/05/25 03:13:19;;;;;;;0.70;0.60;;;14.80;99.90;;;;;;4985540;28;20049;-75
2022/05/25 03:15:47;;;;;;;1.85;1.13;;;14.80;99.90;;;;;;4984705;28;20051;-75
2022/05/25 03:18:14;;;;;;;2.63;1.25;;;14.80;99.90;;;;;;4985054;28;20498;-73
2022/05/25 03:20:42;;;;;;;1.92;0.70;;;14.80;99.90;;;;;;4983240;28;20023;-73
2022/05/25 03:23:10;;;;;;;1.10;0.55;;;14.90;99.90;;;;;;4984775;28;20099;-74
2022/05/25 03:25:38;;;;;;;1.40;0.50;;;14.90;99.90;;;;;;4984188;28;20026;-73
2022/05/25 03:28:06;;;;;;;2.25;0.70;;;14.90;99.90;;;;;;4984112;28;20049;-74
2022/05/25 03:30:33;;;;;;;2.92;0.60;;;14.90;99.90;;;;;;4985658;28;20014;-74
2022/05/25 03:33:01;;;;;;;2.35;0.93;;;14.90;99.90;;;;;;4983395;28;20022;-76
2022/05/25 03:35:29;;;;;;;1.73;0.80;;;14.90;99.90;;;;;;4988982;28;20494;-76
2022/05/25 03:37:58;;;;;;;2.60;0.70;;;15.00;99.90;;;;;;4979219;28;20555;-75
2022/05/25 03:40:26;;;;;;;2.97;0.73;;;15.00;99.90;;;;;;4978852;28;20046;-74
2022/05/25 03:42:54;;;;;;;1.23;0.55;;;15.00;99.90;;;;;;4979147;28;20026;-74
2022/05/25 03:45:22;;;;;;;0.60;0.50;;;15.00;99.90;;;;;;4979068;28;20055;-74
2022/05/25 03:47:49;;;;;;;1.58;0.60;;;15.00;99.90;;;;;;4979288;28;20014;-74
2022/05/25 03:50:18;;;;;;;3.03;0.60;;;15.00;99.90;;;;;;4978605;28;20047;-74
2022/05/25 03:52:47;;;;;;;1.10;0.60;;;14.90;99.90;;;;;;4978634;28;20026;-73
2022/05/25 03:55:15;;;;;;;1.50;0.55;;;15.00;99.90;;;;;;4978833;28;20098;-77
2022/05/25 03:57:43;;;;;;;2.22;0.68;;;14.90;99.90;;;;;;4978694;28;20058;-77
2022/05/25 04:00:11;;;;;;;1.15;0.40;;;14.90;99.90;;;;;;4978838;28;20030;-75
2022/05/25 04:02:42;;;;;;;3.10;0.52;;;15.00;99.90;;;;;;4979007;28;20023;-75
2022/05/25 04:05:10;;;;;;;1.35;0.65;;;15.00;99.90;;;;;;4980142;28;20019;-76
2022/05/25 04:07:46;;;;;;;0.40;0.32;;;15.00;99.90;;;;;;4983766;28;20034;-77
2022/05/25 04:10:19;;;;;;;1.08;0.60;;;15.00;99.90;;;;;;4983324;28;20481;-76
2022/05/25 04:12:48;;;;;;;3.10;0.70;;;15.00;99.90;;;;;;4983681;28;20023;-76
2022/05/25 04:15:20;;;;;;;1.00;0.77;;;15.10;99.90;;;;;;4982541;28;20057;-77
2022/05/25 04:17:48;;;;;;;4.90;0.73;;;15.10;99.90;;;;;;4983364;28;20452;-77
2022/05/25 04:20:17;;;;;;;3.03;0.80;;;15.20;99.90;;;;;;4984988;28;20463;-77
2022/05/25 04:22:46;;;;;;;3.22;0.68;;;15.20;99.90;;;;;;4984310;28;20034;-76
2022/05/25 04:25:16;;;;;;;1.77;0.57;;;15.30;99.90;;;;;;4982709;28;20038;-76
2022/05/25 04:27:47;;;;;;;1.05;0.50;;;15.30;99.90;;;;;;4982910;28;20090;-75
2022/05/25 04:30:23;;;;;;;1.48;0.68;;;15.30;99.90;;;;;;4982857;28;20019;-76
2022/05/25 04:32:50;;;;;;;1.50;0.75;;;15.20;99.90;;;;;;4982792;28;20031;-75
2022/05/25 04:35:18;;;;;;;1.85;0.80;;;15.20;99.90;;;;;;4982136;28;20114;-76
2022/05/25 04:37:49;;;;;;;0.82;0.60;;;15.10;99.90;;;;;;4974578;28;20126;-77
2022/05/25 04:40:21;;;;;;;2.58;0.85;;;15.10;99.90;;;;;;4974629;28;20022;-75
2022/05/25 04:42:50;;;;;;;1.85;0.65;;;15.20;99.90;;;;;;4974653;28;20027;-77
2022/05/25 04:45:18;;;;;;;1.60;0.40;;;15.20;99.90;;;;;;4974342;28;20027;-75
2022/05/25 04:47:46;;;;;;;2.65;0.80;;;15.30;99.90;;;;;;4974451;28;20023;-76
2022/05/25 04:50:17;;;;;;;1.20;0.50;;;15.30;99.90;;;;;;4973962;28;20057;-76
2022/05/25 04:52:45;;;;;;;1.25;0.73;;;15.40;99.90;;;;;;4974655;28;20026;-77
2022/05/25 04:57:19;;;;;;;3.55;0.80;;;15.40;99.90;;;;;;4989661;28;20026;-76
2022/05/25 04:58:01;;;;;;;0.75;0.50;;;15.40;99.90;;;;;;5005107;28;20042;-77
2022/05/25 05:00:31;;;;;;;1.30;0.50;;;15.40;99.90;;;;;;4980487;28;20025;-77
2022/05/25 05:02:58;;;;;;;1.52;0.70;;;15.40;99.90;;;;;;5004423;28;20030;-76
2022/05/25 05:05:26;;;;;;;2.50;0.60;;;15.40;99.90;;;;;;5003713;28;20479;-77
2022/05/25 05:07:54;;;;;;;2.10;0.50;;;15.40;99.90;;;;;;4996520;28;20391;-77
2022/05/25 05:10:21;;;;;;;0.80;0.55;;;15.40;99.90;;;;;;4990842;28;20019;-77
2022/05/25 05:12:49;;;;;;;1.55;0.70;;;15.40;99.90;;;;;;4998772;28;20029;-77
2022/05/25 05:15:17;;;;;;;0.80;0.50;;;15.40;99.90;;;;;;5004951;28;20022;-77
2022/05/25 05:17:44;;;;;;;1.30;0.45;;;15.40;99.90;;;;;;5001982;28;20046;-77
2022/05/25 05:20:12;;;;;;;2.92;0.57;;;15.40;99.90;;;;;;5012240;28;20029;-77
2022/05/25 05:22:40;;;;;;;2.97;0.57;;;15.50;99.90;;;;;;4995906;28;20093;-75
2022/05/25 05:25:08;;;;;;;2.40;0.50;;;15.50;99.90;;;;;;5005124;28;20040;-75
2022/05/25 05:27:36;;;;;;;1.55;0.50;;;15.50;99.90;;;;;;5002693;28;20033;-76
2022/05/25 05:30:07;;;;;;;1.77;0.80;;;15.50;99.90;;;;;;5012217;28;20028;-78
2022/05/25 05:32:35;;;;;;;2.08;0.47;;;15.70;99.90;;;;;;4996044;28;20515;-77
2022/05/25 05:35:05;;;;;;;1.02;0.60;;;15.70;99.90;;;;;;5004216;28;20053;-77
2022/05/25 05:37:50;;;;;;;1.02;0.50;;;15.80;99.90;;;;;;5002547;28;20037;-76
2022/05/25 05:40:19;;;;;;;4.03;0.50;;;15.90;99.90;;;;;;4995964;28;20097;-75
2022/05/25 05:42:50;;;;;;;1.50;0.40;;;15.90;99.90;;;;;;5001104;28;20490;-75
2022/05/25 05:45:27;;;;;;;1.27;0.50;;;15.90;99.90;;;;;;5004967;28;20022;-78
2022/05/25 05:48:01;;;;;;;0.30;0.30;;;15.90;99.90;;;;;;5011220;28;20387;-77
2022/05/25 05:50:31;;;;;;;2.47;0.40;;;15.80;99.90;;;;;;4983445;28;20050;-77
2022/05/25 05:52:59;;;;;;;0.55;0.40;;;15.80;99.90;;;;;;5003556;28;20060;-74
2022/05/25 05:55:27;;;;;;;2.00;0.70;;;15.80;99.90;;;;;;5002362;28;20101;-77
2022/05/25 05:57:55;;;;;;;0.57;0.30;;;15.80;99.90;;;;;;5008897;28;20029;-75
2022/05/25 06:00:23;;;;;;;3.80;0.40;;;15.70;99.90;;;;;;4993858;28;20041;-77
2022/05/25 06:02:51;;;;;;;2.70;0.75;;;15.70;99.90;;;;;;5000286;28;20048;-75
2022/05/25 06:05:19;;;;;;;2.80;0.70;;;15.70;99.90;;;;;;5002794;28;20364;-76
2022/05/25 06:07:46;;;;;;;1.33;0.60;;;15.60;99.90;;;;;;5007344;28;20108;-73
2022/05/25 06:10:14;;;;;;;1.00;0.50;;;15.50;99.90;;;;;;4998325;28;20117;-74
2022/05/25 06:12:42;;;;;;;1.40;0.82;;;15.50;99.90;;;;;;5009397;28;20105;-76
2022/05/25 06:20:42;;;;;;;1.70;0.60;;;15.40;99.90;;;;;;4986770;28;20037;-73
2022/05/25 06:23:09;;;;;;;2.17;0.68;;;15.40;99.90;;;;;;5005620;28;20541;-73
2022/05/25 06:25:37;;;;;;;2.95;0.80;;;15.40;99.90;;;;;;5005709;28;20576;-73
2022/05/25 06:28:05;;;;;;;2.38;0.77;;;15.40;99.90;;;;;;4998455;28;20018;-74
2022/05/25 06:30:32;;;;;;;2.72;0.85;;;15.40;99.90;;;;;;5010904;28;20482;-78
2022/05/25 06:33:00;;;;;;;1.50;0.75;;;15.30;99.90;;;;;;5003988;28;20113;-76
2022/05/25 06:35:28;;;;;;;1.10;0.60;;;15.30;99.90;;;;;;5003899;28;20034;-73
2022/05/25 06:37:55;;;;;;;1.10;0.65;;;15.30;99.90;;;;;;5011127;28;20073;-74
2022/05/25 06:40:23;;;;;;;7.90;1.48;;;15.20;99.90;;;;;;4999101;28;20025;-75
2022/05/25 06:42:51;;;;;;;2.15;0.70;;;15.20;99.90;;;;;;5008361;28;20490;-74
2022/05/25 06:45:19;;;;;;;1.38;0.70;;;15.20;99.90;;;;;;5006287;28;20033;-77
2022/05/25 06:47:47;;;;;;;3.58;1.00;;;15.10;99.90;;;;;;5000865;28;20030;-74
2022/05/25 06:50:15;;;;;;;1.60;0.52;;;15.00;99.90;;;;;;5011368;28;20041;-78
2022/05/25 06:52:43;;;;;;;3.53;0.75;;;15.00;99.90;;;;;;4999775;28;20073;-75
2022/05/25 06:55:10;;;;;;;2.30;0.73;;;14.90;99.90;;;;;;5005650;28;20030;-73
2022/05/25 06:57:40;;;;;;;2.92;0.70;;;14.80;99.90;;;;;;4990954;28;20049;-74
2022/05/25 07:00:08;;;;;;;2.03;0.68;;;14.80;99.90;;;;;;5011185;28;20072;-75
2022/05/25 07:02:37;;;;;;;1.70;0.80;;;14.70;99.90;;;;;;4999706;28;20022;-74
2022/05/25 07:05:06;;;;;;;1.88;0.90;;;14.60;99.90;;;;;;5006165;28;20030;-77
2022/05/25 07:07:34;;;;;;;1.10;0.77;;;14.50;99.90;;;;;;5007425;28;20090;-77
2022/05/25 07:10:02;;;;;;;2.80;0.82;;;14.50;99.90;;;;;;4997943;28;20045;-74
2022/05/25 07:12:31;;;;;;;1.23;0.60;;;14.40;99.90;;;;;;5009308;28;20033;-74
2022/05/25 07:14:59;;;;;;;3.28;1.13;;;14.40;99.90;;;;;;5002902;28;20438;-76
2022/05/25 07:17:28;;;;;;;5.97;0.80;;;14.40;99.90;;;;;;5002851;28;20392;-77
2022/05/25 07:19:55;;;;;;;5.10;0.95;;;14.40;99.90;;;;;;5010204;28;20018;-77
2022/05/25 07:22:23;;;;;;;3.45;0.60;;;14.40;99.90;;;;;;4997888;28;20026;-76
2022/05/25 07:24:51;;;;;;;3.17;0.88;;;14.40;99.90;;;;;;5007178;28;20109;-74
2022/05/25 07:27:18;;;;;;;1.90;0.70;;;14.50;99.90;;;;;;5004695;28;20033;-74
2022/05/25 07:29:46;;;;;;;4.97;0.73;;;14.50;99.90;;;;;;5003290;28;20113;-74
2022/05/25 07:32:14;;;;;;;1.50;0.70;;;14.50;99.90;;;;;;4997799;28;20026;-77
2022/05/25 07:34:54;;;;;;;1.55;0.80;;;14.40;99.90;;;;;;4992176;28;20454;-76
2022/05/25 07:37:26;;;;;;;1.48;0.90;;;14.40;99.90;;;;;;4991475;28;20030;-75
2022/05/25 07:40:04;;;;;;;1.65;1.17;;;14.40;99.90;;;;;;4990347;28;20038;-75
2022/05/25 07:42:33;;;;;;;8.10;1.85;;;14.30;99.90;;;;;;4987002;28;20061;-74
2022/05/25 07:45:03;;;;;;;4.13;1.50;;;14.20;99.90;;;;;;4988098;28;20072;-74
2022/05/25 07:47:32;;;;;;;4.43;1.98;;;14.10;99.90;;;;;;4988419;28;20015;-77
2022/05/25 07:50:00;;;;;;;3.17;1.20;;;14.10;99.90;;;;;;4993476;28;20428;-76
2022/05/25 07:52:33;;;;;;;3.45;1.40;;;14.10;99.90;;;;;;4986457;28;20394;-74
2022/05/25 07:55:02;;;;;;;7.47;2.13;;;14.10;99.90;;;;;;4979541;28;20023;-78
2022/05/25 07:57:30;;;;;;;2.33;1.00;;;14.10;99.90;;;;;;4979135;28;20444;-78
2022/05/25 07:59:57;;;;;;;6.93;1.10;;;14.00;99.90;;;;;;4976449;28;20019;-77
2022/05/25 08:08:07;;;;;;;6.93;2.33;;;14.20;99.90;;;;;;4977561;28;20045;-74
2022/05/25 08:10:35;;;;;;;3.78;2.28;;;14.20;99.90;;;;;;4978190;28;20025;-76
2022/05/25 08:13:05;;;;;;;12.35;2.10;;;14.10;99.90;;;;;;4976138;28;20042;-77
2022/05/25 08:15:33;;;;;;;5.50;1.98;;;14.10;99.90;;;;;;4979165;28;20034;-77
2022/05/25 08:18:01;;;;;;;2.38;1.73;;;14.10;99.90;;;;;;4979339;28;20031;-77
2022/05/25 08:20:30;;;;;;;3.35;1.60;;;14.20;99.90;;;;;;4979240;28;20064;-74
2022/05/25 08:22:58;;;;;;;2.67;1.40;;;14.20;99.90;;;;;;4979067;28;20090;-77
2022/05/25 08:25:26;;;;;;;2.80;1.40;;;14.10;99.90;;;;;;4995935;28;20033;-75
2022/05/25 08:27:54;;;;;;;3.17;1.13;;;14.10;99.90;;;;;;4995833;28;20119;-77
2022/05/25 08:30:22;;;;;;;1.30;0.80;;;14.20;99.90;;;;;;4993241;28;20025;-75
2022/05/25 08:32:50;;;;;;;2.35;1.10;;;14.20;99.90;;;;;;4993244;28;20050;-77
2022/05/25 08:35:18;;;;;;;5.65;1.30;;;14.10;99.90;;;;;;4995321;28;20019;-77
2022/05/25 08:37:46;;;;;;;2.85;1.50;;;14.00;99.90;;;;;;4995762;28;20062;-75
2022/05/25 08:40:20;;;;;;;5.15;1.85;;;14.00;99.90;;;;;;4995821;28;20030;-77
2022/05/25 08:43:04;;;;;;;3.17;1.40;;;14.00;99.90;;;;;;4993097;28;20023;-81
2022/05/25 08:45:42;;;;;;;3.78;1.17;;;13.90;99.90;;;;;;4993235;28;20023;-78
2022/05/25 08:48:13;;;;;;;1.98;1.08;;;13.80;99.90;;;;;;4990494;28;20054;-75
2022/05/25 08:50:43;;;;;;;5.55;1.80;;;13.80;99.90;;;;;;4992123;28;20062;-75
2022/05/25 08:53:13;;;;;;;2.17;1.17;;;13.80;99.90;;;;;;4993156;28;20101;-76
2022/05/25 08:55:59;;;;;;;2.40;1.30;;;13.80;99.90;;;;;;4993062;28;20037;-74
2022/05/25 08:58:52;;;;;;;4.03;1.75;;;13.70;99.90;;;;;;4990413;28;20061;-75
2022/05/25 09:01:30;;;;;;;2.83;1.65;;;13.70;99.90;;;;;;4993012;28;20011;-75
2022/05/25 09:04:25;;;;;;;4.03;1.70;;;13.60;99.90;;;;;;4992778;28;20480;-74
2022/05/25 09:06:52;;;;;;;2.67;1.45;;;13.60;99.90;;;;;;4991261;28;20062;-77
2022/05/25 09:09:43;;;;;;;4.50;1.90;;;13.60;99.90;;;;;;5002674;28;20494;-74
2022/05/25 09:12:28;;;;;;;2.22;1.67;;;13.50;99.90;;;;;;4996516;28;20426;-78
2022/05/25 09:15:35;;;;;;;4.30;1.98;;;13.50;99.90;;;;;;4993863;28;20053;-78
2022/05/25 09:18:17;;;;;;;4.45;2.50;;;13.50;99.90;;;;;;4970883;28;20035;-78
2022/05/25 09:20:49;;;;;;;2.20;1.30;;;13.50;99.90;;;;;;4990993;28;20372;-79
2022/05/25 09:23:18;;;;;;;4.20;1.55;;;13.50;99.90;;;;;;4994165;28;20553;-79
2022/05/25 09:25:47;;;;;;;2.22;1.27;;;13.40;99.90;;;;;;4994654;28;20086;-80
2022/05/25 09:28:31;;;;;;;2.20;1.33;;;13.40;99.90;;;;;;4995234;28;20109;-78
2022/05/25 09:31:02;;;;;;;3.15;1.38;;;13.40;99.90;;;;;;4979477;28;20033;-78
2022/05/25 09:34:11;;;;;;;2.75;1.27;;;13.30;99.90;;;;;;4981736;28;20026;-74
2022/05/25 09:37:11;;;;;;;1.92;1.40;;;13.30;99.90;;;;;;4915407;29;20513;-74
2022/05/25 09:39:45;;;;;;;2.85;1.38;;;13.20;99.90;;;;;;4978088;28;20067;-75
2022/05/25 09:42:21;;;;;;;2.95;1.60;;;13.20;99.90;;;;;;4980221;28;20102;-77
2022/05/25 09:44:56;;;;;;;2.40;1.00;;;13.20;99.90;;;;;;4977257;28;20018;-78
2022/05/25 09:47:31;;;;;;;2.45;1.30;;;13.20;99.90;;;;;;4974160;28;20030;-74
2022/05/25 09:49:59;;;;;;;2.25;1.10;;;13.20;99.90;;;;;;4982380;28;20047;-74
2022/05/25 09:52:36;;;;;;;2.20;1.05;;;13.20;99.90;;;;;;4983164;28;20485;-77
2022/05/25 09:55:25;;;;;;;2.50;1.52;;;13.20;99.90;;;;;;4982626;28;20535;-75
2022/05/25 09:58:00;;;;;;;2.13;1.27;;;13.20;99.90;;;;;;4982537;28;20035;-74
2022/05/25 10:00:37;;;;;;;3.33;1.58;;;13.10;99.90;;;;;;4981529;28;20022;-74
2022/05/25 10:03:10;;;;;;;3.05;1.90;;;13.10;99.90;;;;;;4980117;28;20427;-75
2022/05/25 10:05:55;;;;;;;3.97;1.95;;;13.10;99.90;;;;;;4980443;28;20101;-77
2022/05/25 10:08:37;;;;;;;3.85;2.40;;;13.10;99.90;;;;;;4981565;28;20378;-77
2022/05/25 10:11:31;;;;;;;5.00;2.33;;;13.00;99.90;;;;;;4979937;28;20031;-74
2022/05/25 10:14:17;;;;;;;3.20;2.40;;;13.00;99.90;;;;;;4981626;28;20019;-74
2022/05/25 10:16:44;;;;;;;;;;;13.00;99.90;;;;;;4980635;28;20047;-78
2022/05/25 10:19:14;;;;;;;3.55;1.70;;;13.00;99.90;;;;;;4979890;28;19910;-78
2022/05/25 10:21:55;;;;;;;5.82;1.85;;;13.00;99.90;;;;;;4978982;28;20035;-78
2022/05/25 10:24:29;;;;;;;2.50;1.52;;;13.00;99.90;;;;;;4979346;28;20027;-78
2022/05/25 10:26:59;;;;;;;2.58;1.40;;;13.00;99.90;;;;;;4978737;28;20049;-78
2022/05/25 10:38:40;;;;;;;3.80;2.20;;;12.90;99.90;;;;;;4944651;28;20051;-78
2022/05/25 10:44:23;;;;;;;4.35;1.55;;;12.90;99.90;;;;;;4975425;28;20083;-77
2022/05/25 10:46:57;;;;;;;5.22;1.30;;;12.90;99.90;;;;;;4975212;28;20015;-77
2022/05/25 10:49:36;;;;;;;2.78;1.40;;;12.80;99.90;;;;;;4977126;28;20049;-74
2022/05/25 10:52:37;;;;;;;2.38;1.15;;;12.80;99.90;;;;;;4975444;28;20065;-75
2022/05/25 10:55:05;;;;;;;1.63;1.00;;;12.80;99.90;;;;;;4973355;28;20038;-77
2022/05/25 10:57:54;;;;;;;2.40;1.13;;;12.80;99.90;;;;;;4974944;28;20031;-75
2022/05/25 11:00:47;;;;;;;3.00;1.30;;;12.80;99.90;;;;;;4974948;28;20011;-76
2022/05/25 11:03:39;;;;;;;5.75;1.70;;;12.80;99.90;;;;;;4977963;28;20026;-78
2022/05/25 11:06:28;;;;;;;7.47;1.52;;;12.80;99.90;;;;;;4985706;28;20387;-77
2022/05/25 11:09:32;;;;;;;2.90;1.00;;;12.70;99.90;;;;;;4987359;28;20078;-76
2022/05/25 11:12:19;;;;;;;1.63;1.17;;;12.70;99.90;;;;;;4985540;28;20019;-78
2022/05/25 11:15:16;;;;;;;5.53;1.70;;;12.70;99.90;;;;;;4975125;28;20022;-78
2022/05/25 11:18:25;;;;;;;3.22;1.30;;;12.70;99.90;;;;;;4938979;28;20040;-77
2022/05/25 11:21:18;;;;;;;3.72;1.73;;;12.70;99.90;;;;;;4974840;28;20023;-74
2022/05/25 11:24:01;;;;;;;2.05;1.13;;;12.70;99.90;;;;;;4973656;28;20022;-77
2022/05/25 11:26:56;;;;;;;3.97;1.00;;;12.70;99.90;;;;;;4974361;28;20102;-75
2022/05/25 11:29:53;;;;;;;3.83;1.80;;;12.60;99.90;;;;;;4975639;28;20468;-78
2022/05/25 11:32:33;;;;;;;2.65;1.50;;;12.60;99.90;;;;;;4977131;28;20030;-77
2022/05/25 11:35:14;;;;;;;2.88;1.67;;;12.60;99.90;;;;;;4977083;28;20019;-77
2022/05/25 11:37:50;;;;;;;3.03;1.80;;;12.60;99.90;;;;;;4976829;28;20042;-78
2022/05/25 11:40:46;;;;;;;4.57;2.03;;;12.50;99.90;;;;;;4979345;28;20022;-78
2022/05/25 11:43:32;;;;;;;2.22;1.80;;;12.50;99.90;;;;;;4977245;28;20023;-78
2022/05/25 11:46:26;;;;;;;2.88;2.10;;;12.50;99.90;;;;;;4973956;28;20021;-74
2022/05/25 11:48:59;;;;;;;2.05;1.85;;;12.50;99.90;;;;;;4973604;28;20022;-74
2022/05/25 11:51:38;;;;;;;3.13;2.15;;;12.40;99.90;;;;;;4973804;28;20127;-74
2022/05/25 11:54:18;;;;;;;3.42;2.20;;;12.40;99.90;;;;;;4974805;28;20383;-74
2022/05/25 11:56:50;;;;;;;4.70;2.60;;;12.40;99.90;;;;;;4973720;28;20066;-78
2022/05/25 11:59:39;;;;;;;3.88;2.15;;;12.40;99.90;;;;;;4973943;28;20027;-76
2022/05/25 12:02:30;;;;;;;10.68;2.35;;;12.40;99.90;;;;;;4973784;28;20058;-75
2022/05/25 12:05:12;;;;;;;3.42;2.13;;;12.40;99.90;;;;;;4973710;28;20039;-78
2022/05/25 12:07:55;;;;;;;5.00;2.55;;;12.40;99.90;;;;;;4973487;28;20019;-77
2022/05/25 12:11:02;;;;;;;5.53;2.75;;;12.40;99.90;;;;;;4977338;28;20100;-77
2022/05/25 12:13:58;;;;;;;3.97;2.47;;;12.40;99.90;;;;;;4979642;28;20057;-74
2022/05/25 12:16:51;;;;;;;3.28;2.30;;;12.40;99.90;;;;;;4981987;28;20352;-78
2022/05/25 12:19:33;;;;;;;13.88;2.97;;;12.40;99.90;;;;;;4985700;28;20037;-76
2022/05/25 12:22:11;;;;;;;4.00;2.15;;;12.30;99.90;;;;;;4984424;28;20034;-78
2022/05/25 12:24:42;;;;;;;7.85;2.35;;;12.30;99.90;;;;;;4982612;28;20039;-75
2022/05/25 12:27:21;;;;;;;4.35;2.25;;;12.30;99.90;;;;;;4983072;28;20030;-73
2022/05/25 12:30:00;;;;;;;9.93;3.17;;;12.30;99.90;;;;;;4984943;28;20031;-76
2022/05/25 12:32:29;;;;;;;5.93;2.63;;;12.30;99.90;;;;;;4981827;28;20023;-72
2022/05/25 12:34:57;;;;;;;4.22;2.20;;;12.30;99.90;;;;;;4980961;28;20424;-73
2022/05/25 12:37:28;;;;;;;5.80;2.50;;;12.40;99.90;;;;;;4982974;28;20037;-76
2022/05/25 12:40:00;;;;;;;2.65;1.90;;;12.30;99.90;;;;;;4983117;28;20027;-73
2022/05/25 12:42:28;;;;;;;3.58;2.33;;;12.30;99.90;;;;;;4984613;28;20101;-79
2022/05/25 12:51:04;;;;;;;2.85;2.10;;;12.20;99.90;;;;;;4984397;28;20113;-77
2022/05/25 12:53:57;;;;;;;3.20;1.88;;;12.20;99.90;;;;;;4984735;28;20031;-79
2022/05/25 12:56:27;;;;;;;2.38;2.05;;;12.20;99.90;;;;;;4983645;28;20026;-79
2022/05/25 12:58:57;;;;;;;4.93;2.45;;;12.10;99.90;;;;;;4984659;28;20026;-74
2022/05/25 13:01:28;;;;;;;3.20;2.10;;;12.20;99.90;;;;;;4984040;28;20098;-79
2022/05/25 13:03:58;;;;;;;4.82;2.30;;;12.20;99.90;;;;;;4982524;28;20030;-72
2022/05/25 13:06:32;;;;;;;4.78;2.42;;;12.10;99.90;;;;;;4983353;28;20471;-78
2022/05/25 13:09:19;;;;;;;4.97;2.50;;;12.10;99.90;;;;;;4984145;28;20026;-79
2022/05/25 13:11:51;;;;;;;3.63;2.47;;;12.10;99.90;;;;;;4984058;28;20023;-77
2022/05/25 13:14:24;;;;;;;7.00;3.13;;;12.10;99.90;;;;;;4983283;28;20027;-74
2022/05/25 13:17:03;;;;;;;4.88;2.72;;;12.10;99.90;;;;;;4982484;28;20030;-79
2022/05/25 13:19:49;;;;;;;3.47;2.28;;;12.10;99.90;;;;;;4982511;28;20026;-73
2022/05/25 13:22:20;;;;;;;;;;;12.10;99.90;;;;;;4983041;28;20033;-78
2022/05/25 13:25:14;;;;;;;5.18;2.83;;;12.10;99.90;;;;;;4982769;28;20410;-79
2022/05/25 13:28:13;;;;;;;4.22;2.75;;;12.00;99.90;;;;;;4983432;28;20027;-78
2022/05/25 13:30:40;;;;;;;5.53;3.20;;;12.00;99.90;;;;;;4983129;28;20023;-74
2022/05/25 13:33:21;;;;;;;4.25;2.85;;;12.00;99.90;;;;;;4982724;28;20022;-78
2022/05/25 13:36:07;;;;;;;5.40;3.10;;;12.00;99.90;;;;;;4986807;28;20043;-78
2022/05/25 13:38:42;;;;;;;4.32;2.97;;;12.00;99.90;;;;;;4988037;28;20399;-79
2022/05/25 13:41:25;;;;;;;3.87;2.87;;;11.90;99.90;;;;;;4988146;28;20065;-78
2022/05/25 13:43:59;;;;;;;3.67;2.80;;;11.90;99.90;;;;;;4988151;28;20026;-79
2022/05/25 13:46:34;;;;;;;5.80;2.70;;;11.90;99.90;;;;;;4987648;28;20023;-79
2022/05/25 13:49:04;;;;;;;3.97;2.92;;;11.90;99.90;;;;;;4987037;28;20042;-79
2022/05/25 13:51:31;;;;;;;4.82;3.08;;;11.90;99.90;;;;;;4988199;28;20056;-76
2022/05/25 13:53:59;;;;;;;4.72;2.60;;;11.90;99.90;;;;;;4986370;28;20050;-79
2022/05/25 13:56:36;;;;;;;4.63;2.42;;;11.90;99.90;;;;;;4986525;28;20022;-77
2022/05/25 13:59:11;;;;;;;10.60;2.90;;;11.90;99.90;;;;;;4995594;28;20371;-79
2022/05/25 14:01:39;;;;;;;6.07;2.28;;;11.80;99.90;;;;;;4997173;28;20031;-75